sensor_id;sensor_type;location;lat;lon;timestamp;pressure;altitude;pressure_sealevel;temperature
11424;BMP180;5768;51.476;7.210;2022-09-09T00:01:08;99573.00;;;19.20
11424;BMP180;5768;51.476;7.210;2022-09-09T00:06:21;99575.00;;;19.30
11424;BMP180;5768;51.476;7.210;2022-09-09T00:11:34;99562.00;;;19.40
11424;BMP180;5768;51.476;7.210;2022-09-09T00:16:47;99569.00;;;19.40
11424;BMP180;5768;51.476;7.210;2022-09-09T00:22:05;99570.00;;;19.50
11424;BMP180;5768;51.476;7.210;2022-09-09T00:27:19;99553.00;;;19.40
11424;BMP180;5768;51.476;7.210;2022-09-09T00:32:28;99556.00;;;19.40
11424;BMP180;5768;51.476;7.210;2022-09-09T00:37:32;99555.00;;;19.20
11424;BMP180;5768;51.476;7.210;2022-09-09T00:42:42;99552.00;;;19.10
11424;BMP180;5768;51.476;7.210;2022-09-09T00:47:51;99563.00;;;19.10
11424;BMP180;5768;51.476;7.210;2022-09-09T00:53:05;99549.00;;;18.90
11424;BMP180;5768;51.476;7.210;2022-09-09T00:58:12;99540.00;;;18.80
11424;BMP180;5768;51.476;7.210;2022-09-09T01:03:25;99536.00;;;18.90
11424;BMP180;5768;51.476;7.210;2022-09-09T01:08:48;99553.00;;;19.00
11424;BMP180;5768;51.476;7.210;2022-09-09T01:14:00;99547.00;;;19.10
11424;BMP180;5768;51.476;7.210;2022-09-09T01:19:12;99548.00;;;19.20
11424;BMP180;5768;51.476;7.210;2022-09-09T01:24:25;99550.00;;;19.10
11424;BMP180;5768;51.476;7.210;2022-09-09T01:29:30;99554.00;;;19.00
11424;BMP180;5768;51.476;7.210;2022-09-09T01:34:38;99553.00;;;18.90
11424;BMP180;5768;51.476;7.210;2022-09-09T01:39:44;99545.00;;;18.80
11424;BMP180;5768;51.476;7.210;2022-09-09T01:44:48;99536.00;;;18.90
11424;BMP180;5768;51.476;7.210;2022-09-09T01:49:50;99539.00;;;19.10
11424;BMP180;5768;51.476;7.210;2022-09-09T01:54:52;99533.00;;;19.30
11424;BMP180;5768;51.476;7.210;2022-09-09T02:00:05;99539.00;;;19.30
11424;BMP180;5768;51.476;7.210;2022-09-09T02:05:27;99528.00;;;19.30
11424;BMP180;5768;51.476;7.210;2022-09-09T02:10:44;99523.00;;;19.20
11424;BMP180;5768;51.476;7.210;2022-09-09T02:15:55;99538.00;;;19.00
11424;BMP180;5768;51.476;7.210;2022-09-09T02:20:59;99533.00;;;18.90
11424;BMP180;5768;51.476;7.210;2022-09-09T02:26:03;99540.00;;;18.80
11424;BMP180;5768;51.476;7.210;2022-09-09T02:31:07;99532.00;;;18.80
11424;BMP180;5768;51.476;7.210;2022-09-09T02:36:13;99540.00;;;18.80
11424;BMP180;5768;51.476;7.210;2022-09-09T02:41:20;99547.00;;;18.90
11424;BMP180;5768;51.476;7.210;2022-09-09T02:46:45;99546.00;;;19.10
11424;BMP180;5768;51.476;7.210;2022-09-09T02:51:57;99547.00;;;19.20
11424;BMP180;5768;51.476;7.210;2022-09-09T02:57:08;99538.00;;;19.30
11424;BMP180;5768;51.476;7.210;2022-09-09T03:02:13;99539.00;;;19.30
11424;BMP180;5768;51.476;7.210;2022-09-09T03:07:16;99538.00;;;19.30
11424;BMP180;5768;51.476;7.210;2022-09-09T03:12:18;99531.00;;;19.30
11424;BMP180;5768;51.476;7.210;2022-09-09T03:17:21;99530.00;;;19.30
11424;BMP180;5768;51.476;7.210;2022-09-09T03:22:24;99524.00;;;19.30
11424;BMP180;5768;51.476;7.210;2022-09-09T03:27:26;99521.00;;;19.30
11424;BMP180;5768;51.476;7.210;2022-09-09T03:32:29;99517.00;;;19.20
11424;BMP180;5768;51.476;7.210;2022-09-09T03:37:32;99511.00;;;19.10
11424;BMP180;5768;51.476;7.210;2022-09-09T03:42:34;99517.00;;;19.00
11424;BMP180;5768;51.476;7.210;2022-09-09T03:47:39;99524.00;;;18.90
11424;BMP180;5768;51.476;7.210;2022-09-09T03:52:41;99515.00;;;18.90
11424;BMP180;5768;51.476;7.210;2022-09-09T03:57:44;99522.00;;;18.90
11424;BMP180;5768;51.476;7.210;2022-09-09T04:02:48;99515.00;;;19.00
11424;BMP180;5768;51.476;7.210;2022-09-09T04:07:50;99507.00;;;19.10
11424;BMP180;5768;51.476;7.210;2022-09-09T04:12:53;99515.00;;;19.10
11424;BMP180;5768;51.476;7.210;2022-09-09T04:17:57;99516.00;;;19.10
11424;BMP180;5768;51.476;7.210;2022-09-09T04:22:59;99520.00;;;19.10
11424;BMP180;5768;51.476;7.210;2022-09-09T04:28:02;99522.00;;;19.10
11424;BMP180;5768;51.476;7.210;2022-09-09T04:33:06;99522.00;;;19.00
11424;BMP180;5768;51.476;7.210;2022-09-09T04:38:08;99522.00;;;18.80
11424;BMP180;5768;51.476;7.210;2022-09-09T04:43:10;99516.00;;;18.70
11424;BMP180;5768;51.476;7.210;2022-09-09T04:48:14;99526.00;;;18.70
11424;BMP180;5768;51.476;7.210;2022-09-09T04:53:16;99530.00;;;18.80
11424;BMP180;5768;51.476;7.210;2022-09-09T04:58:18;99524.00;;;18.90
11424;BMP180;5768;51.476;7.210;2022-09-09T05:03:44;99532.00;;;19.10
11424;BMP180;5768;51.476;7.210;2022-09-09T05:08:46;99520.00;;;19.20
11424;BMP180;5768;51.476;7.210;2022-09-09T05:13:50;99527.00;;;19.20
11424;BMP180;5768;51.476;7.210;2022-09-09T05:18:54;99533.00;;;19.30
11424;BMP180;5768;51.476;7.210;2022-09-09T05:23:56;99529.00;;;19.40
11424;BMP180;5768;51.476;7.210;2022-09-09T05:28:58;99524.00;;;19.40
11424;BMP180;5768;51.476;7.210;2022-09-09T05:34:02;99527.00;;;19.50
11424;BMP180;5768;51.476;7.210;2022-09-09T05:39:04;99526.00;;;19.60
11424;BMP180;5768;51.476;7.210;2022-09-09T05:44:06;99532.00;;;19.60
11424;BMP180;5768;51.476;7.210;2022-09-09T05:49:10;99530.00;;;19.70
11424;BMP180;5768;51.476;7.210;2022-09-09T05:54:12;99529.00;;;19.80
11424;BMP180;5768;51.476;7.210;2022-09-09T05:59:16;99530.00;;;19.90
11424;BMP180;5768;51.476;7.210;2022-09-09T06:04:20;99534.00;;;20.00
11424;BMP180;5768;51.476;7.210;2022-09-09T06:09:25;99528.00;;;20.00
11424;BMP180;5768;51.476;7.210;2022-09-09T06:14:27;99541.00;;;20.10
11424;BMP180;5768;51.476;7.210;2022-09-09T06:19:30;99543.00;;;20.30
11424;BMP180;5768;51.476;7.210;2022-09-09T06:24:33;99535.00;;;20.40
11424;BMP180;5768;51.476;7.210;2022-09-09T06:29:35;99535.00;;;20.50
11424;BMP180;5768;51.476;7.210;2022-09-09T06:34:38;99538.00;;;20.70
11424;BMP180;5768;51.476;7.210;2022-09-09T06:39:40;99543.00;;;20.80
11424;BMP180;5768;51.476;7.210;2022-09-09T06:44:42;99536.00;;;21.00
11424;BMP180;5768;51.476;7.210;2022-09-09T06:49:46;99541.00;;;21.20
11424;BMP180;5768;51.476;7.210;2022-09-09T06:54:48;99538.00;;;21.30
11424;BMP180;5768;51.476;7.210;2022-09-09T06:59:50;99543.00;;;21.40
11424;BMP180;5768;51.476;7.210;2022-09-09T07:04:54;99545.00;;;21.50
11424;BMP180;5768;51.476;7.210;2022-09-09T07:09:57;99549.00;;;21.60
11424;BMP180;5768;51.476;7.210;2022-09-09T07:14:59;99557.00;;;21.70
11424;BMP180;5768;51.476;7.210;2022-09-09T07:20:04;99561.00;;;21.90
11424;BMP180;5768;51.476;7.210;2022-09-09T07:25:08;99562.00;;;22.10
11424;BMP180;5768;51.476;7.210;2022-09-09T07:30:11;99577.00;;;22.30
11424;BMP180;5768;51.476;7.210;2022-09-09T07:35:15;99568.00;;;22.50
11424;BMP180;5768;51.476;7.210;2022-09-09T07:40:17;99571.00;;;22.30
11424;BMP180;5768;51.476;7.210;2022-09-09T07:45:22;99575.00;;;22.20
11424;BMP180;5768;51.476;7.210;2022-09-09T07:50:26;99581.00;;;22.00
11424;BMP180;5768;51.476;7.210;2022-09-09T07:55:28;99572.00;;;21.80
11424;BMP180;5768;51.476;7.210;2022-09-09T08:00:31;99579.00;;;21.90
11424;BMP180;5768;51.476;7.210;2022-09-09T08:05:35;99581.00;;;22.00
11424;BMP180;5768;51.476;7.210;2022-09-09T08:10:37;99577.00;;;22.20
11424;BMP180;5768;51.476;7.210;2022-09-09T08:15:39;99589.00;;;22.40
11424;BMP180;5768;51.476;7.210;2022-09-09T08:20:43;99586.00;;;22.40
11424;BMP180;5768;51.476;7.210;2022-09-09T08:25:45;99590.00;;;22.50
11424;BMP180;5768;51.476;7.210;2022-09-09T08:30:49;99582.00;;;22.50
11424;BMP180;5768;51.476;7.210;2022-09-09T08:35:53;99594.00;;;22.30
11424;BMP180;5768;51.476;7.210;2022-09-09T08:41:07;99597.00;;;22.10
11424;BMP180;5768;51.476;7.210;2022-09-09T08:46:21;99592.00;;;22.10
11424;BMP180;5768;51.476;7.210;2022-09-09T08:51:30;99588.00;;;22.30
11424;BMP180;5768;51.476;7.210;2022-09-09T08:56:34;99599.00;;;22.80
11424;BMP180;5768;51.476;7.210;2022-09-09T09:01:50;99591.00;;;23.20
11424;BMP180;5768;51.476;7.210;2022-09-09T09:07:05;99605.00;;;23.40
11424;BMP180;5768;51.476;7.210;2022-09-09T09:12:17;99603.00;;;23.40
11424;BMP180;5768;51.476;7.210;2022-09-09T09:17:23;99605.00;;;23.20
11424;BMP180;5768;51.476;7.210;2022-09-09T09:22:38;99605.00;;;23.10
11424;BMP180;5768;51.476;7.210;2022-09-09T09:27:52;99600.00;;;22.90
11424;BMP180;5768;51.476;7.210;2022-09-09T09:33:06;99601.00;;;22.80
11424;BMP180;5768;51.476;7.210;2022-09-09T09:38:18;99608.00;;;22.90
11424;BMP180;5768;51.476;7.210;2022-09-09T09:43:26;99607.00;;;23.30
11424;BMP180;5768;51.476;7.210;2022-09-09T09:48:29;99601.00;;;23.50
11424;BMP180;5768;51.476;7.210;2022-09-09T09:53:35;99608.00;;;23.90
11424;BMP180;5768;51.476;7.210;2022-09-09T09:58:50;99608.00;;;24.50
11424;BMP180;5768;51.476;7.210;2022-09-09T10:03:58;99617.00;;;24.70
11424;BMP180;5768;51.476;7.210;2022-09-09T10:09:17;99618.00;;;24.80
11424;BMP180;5768;51.476;7.210;2022-09-09T10:14:30;99606.00;;;24.50
11424;BMP180;5768;51.476;7.210;2022-09-09T10:19:37;99611.00;;;24.50
11424;BMP180;5768;51.476;7.210;2022-09-09T10:25:17;99607.00;;;24.40
11424;BMP180;5768;51.476;7.210;2022-09-09T10:30:30;99601.00;;;24.40
11424;BMP180;5768;51.476;7.210;2022-09-09T10:35:42;99607.00;;;24.40
11424;BMP180;5768;51.476;7.210;2022-09-09T10:41:11;99578.00;;;24.30
11424;BMP180;5768;51.476;7.210;2022-09-09T10:46:23;99586.00;;;24.60
11424;BMP180;5768;51.476;7.210;2022-09-09T10:51:40;99583.00;;;24.80
11424;BMP180;5768;51.476;7.210;2022-09-09T10:57:01;99580.00;;;25.40
11424;BMP180;5768;51.476;7.210;2022-09-09T11:02:15;99590.00;;;25.60
11424;BMP180;5768;51.476;7.210;2022-09-09T11:07:43;99592.00;;;25.40
11424;BMP180;5768;51.476;7.210;2022-09-09T11:12:50;99588.00;;;25.20
11424;BMP180;5768;51.476;7.210;2022-09-09T11:17:58;99585.00;;;24.90
11424;BMP180;5768;51.476;7.210;2022-09-09T11:23:08;99588.00;;;24.70
11424;BMP180;5768;51.476;7.210;2022-09-09T11:28:34;99598.00;;;25.00
11424;BMP180;5768;51.476;7.210;2022-09-09T11:45:22;99578.00;;;25.50
11424;BMP180;5768;51.476;7.210;2022-09-09T11:50:37;99578.00;;;25.40
11424;BMP180;5768;51.476;7.210;2022-09-09T11:55:40;99578.00;;;25.50
11424;BMP180;5768;51.476;7.210;2022-09-09T12:00:46;99569.00;;;25.10
11424;BMP180;5768;51.476;7.210;2022-09-09T12:05:50;99573.00;;;24.90
11424;BMP180;5768;51.476;7.210;2022-09-09T12:10:56;99577.00;;;24.80
11424;BMP180;5768;51.476;7.210;2022-09-09T12:16:00;99577.00;;;24.60
11424;BMP180;5768;51.476;7.210;2022-09-09T12:21:08;99598.00;;;24.40
11424;BMP180;5768;51.476;7.210;2022-09-09T12:26:30;99602.00;;;24.90
11424;BMP180;5768;51.476;7.210;2022-09-09T12:31:45;99595.00;;;26.00
11424;BMP180;5768;51.476;7.210;2022-09-09T12:36:57;99604.00;;;26.40
11424;BMP180;5768;51.476;7.210;2022-09-09T12:42:00;99585.00;;;25.80
11424;BMP180;5768;51.476;7.210;2022-09-09T12:47:06;99595.00;;;25.40
11424;BMP180;5768;51.476;7.210;2022-09-09T12:52:17;99599.00;;;25.20
11424;BMP180;5768;51.476;7.210;2022-09-09T12:57:24;99603.00;;;26.10
11424;BMP180;5768;51.476;7.210;2022-09-09T13:02:28;99597.00;;;26.80
11424;BMP180;5768;51.476;7.210;2022-09-09T13:07:30;99587.00;;;28.70
11424;BMP180;5768;51.476;7.210;2022-09-09T13:12:33;99578.00;;;30.40
11424;BMP180;5768;51.476;7.210;2022-09-09T13:17:36;99570.00;;;31.10
11424;BMP180;5768;51.476;7.210;2022-09-09T13:22:40;99562.00;;;30.30
11424;BMP180;5768;51.476;7.210;2022-09-09T13:27:54;99566.00;;;28.80
11424;BMP180;5768;51.476;7.210;2022-09-09T13:38:22;99574.00;;;26.60
11424;BMP180;5768;51.476;7.210;2022-09-09T13:43:27;99576.00;;;25.80
11424;BMP180;5768;51.476;7.210;2022-09-09T13:48:31;99592.00;;;25.10
11424;BMP180;5768;51.476;7.210;2022-09-09T13:53:33;99604.00;;;23.40
11424;BMP180;5768;51.476;7.210;2022-09-09T13:58:35;99598.00;;;22.00
11424;BMP180;5768;51.476;7.210;2022-09-09T14:03:39;99590.00;;;21.90
11424;BMP180;5768;51.476;7.210;2022-09-09T14:08:41;99595.00;;;21.90
11424;BMP180;5768;51.476;7.210;2022-09-09T14:13:43;99581.00;;;22.30
11424;BMP180;5768;51.476;7.210;2022-09-09T14:18:47;99556.00;;;23.40
11424;BMP180;5768;51.476;7.210;2022-09-09T14:23:49;99547.00;;;25.70
11424;BMP180;5768;51.476;7.210;2022-09-09T14:28:52;99562.00;;;28.00
11424;BMP180;5768;51.476;7.210;2022-09-09T14:33:55;99575.00;;;28.10
11424;BMP180;5768;51.476;7.210;2022-09-09T14:38:57;99570.00;;;28.40
11424;BMP180;5768;51.476;7.210;2022-09-09T14:44:00;99572.00;;;27.50
11424;BMP180;5768;51.476;7.210;2022-09-09T14:49:03;99566.00;;;26.90
11424;BMP180;5768;51.476;7.210;2022-09-09T14:54:05;99566.00;;;27.10
11424;BMP180;5768;51.476;7.210;2022-09-09T14:59:08;99552.00;;;30.20
11424;BMP180;5768;51.476;7.210;2022-09-09T15:04:12;99549.00;;;30.20
11424;BMP180;5768;51.476;7.210;2022-09-09T15:09:15;99551.00;;;28.30
11424;BMP180;5768;51.476;7.210;2022-09-09T15:14:17;99546.00;;;26.60
11424;BMP180;5768;51.476;7.210;2022-09-09T15:19:21;99588.00;;;25.40
11424;BMP180;5768;51.476;7.210;2022-09-09T15:24:23;99618.00;;;23.90
11424;BMP180;5768;51.476;7.210;2022-09-09T15:29:26;99600.00;;;22.20
11424;BMP180;5768;51.476;7.210;2022-09-09T15:34:30;99622.00;;;21.70
11424;BMP180;5768;51.476;7.210;2022-09-09T15:39:32;99627.00;;;21.60
11424;BMP180;5768;51.476;7.210;2022-09-09T15:44:39;99626.00;;;21.70
11424;BMP180;5768;51.476;7.210;2022-09-09T15:49:44;99617.00;;;22.00
11424;BMP180;5768;51.476;7.210;2022-09-09T15:54:46;99607.00;;;22.10
11424;BMP180;5768;51.476;7.210;2022-09-09T15:59:48;99589.00;;;22.30
11424;BMP180;5768;51.476;7.210;2022-09-09T16:04:52;99582.00;;;22.40
11424;BMP180;5768;51.476;7.210;2022-09-09T16:09:54;99579.00;;;22.50
11424;BMP180;5768;51.476;7.210;2022-09-09T16:14:56;99583.00;;;22.60
11424;BMP180;5768;51.476;7.210;2022-09-09T16:19:59;99584.00;;;22.70
11424;BMP180;5768;51.476;7.210;2022-09-09T16:25:01;99576.00;;;22.80
11424;BMP180;5768;51.476;7.210;2022-09-09T16:30:05;99578.00;;;23.10
11424;BMP180;5768;51.476;7.210;2022-09-09T16:35:09;99580.00;;;23.20
11424;BMP180;5768;51.476;7.210;2022-09-09T16:40:11;99581.00;;;23.10
11424;BMP180;5768;51.476;7.210;2022-09-09T16:45:13;99608.00;;;22.90
11424;BMP180;5768;51.476;7.210;2022-09-09T16:50:16;99599.00;;;22.80
11424;BMP180;5768;51.476;7.210;2022-09-09T16:55:19;99594.00;;;22.60
11424;BMP180;5768;51.476;7.210;2022-09-09T17:00:22;99592.00;;;22.50
11424;BMP180;5768;51.476;7.210;2022-09-09T17:05:25;99592.00;;;22.30
11424;BMP180;5768;51.476;7.210;2022-09-09T17:10:27;99593.00;;;22.10
11424;BMP180;5768;51.476;7.210;2022-09-09T17:15:29;99602.00;;;22.00
11424;BMP180;5768;51.476;7.210;2022-09-09T17:20:35;99584.00;;;21.80
11424;BMP180;5768;51.476;7.210;2022-09-09T17:25:38;99585.00;;;21.60
11424;BMP180;5768;51.476;7.210;2022-09-09T17:30:40;99592.00;;;21.50
11424;BMP180;5768;51.476;7.210;2022-09-09T17:35:45;99592.00;;;21.40
11424;BMP180;5768;51.476;7.210;2022-09-09T17:40:48;99595.00;;;21.30
11424;BMP180;5768;51.476;7.210;2022-09-09T17:45:51;99596.00;;;21.10
11424;BMP180;5768;51.476;7.210;2022-09-09T17:50:59;99595.00;;;20.90
11424;BMP180;5768;51.476;7.210;2022-09-09T17:56:06;99602.00;;;20.90
11424;BMP180;5768;51.476;7.210;2022-09-09T18:01:11;99606.00;;;20.80
11424;BMP180;5768;51.476;7.210;2022-09-09T18:06:18;99606.00;;;20.80
11424;BMP180;5768;51.476;7.210;2022-09-09T18:11:24;99600.00;;;20.80
11424;BMP180;5768;51.476;7.210;2022-09-09T18:16:30;99611.00;;;20.70
11424;BMP180;5768;51.476;7.210;2022-09-09T18:21:35;99622.00;;;20.70
11424;BMP180;5768;51.476;7.210;2022-09-09T18:26:40;99624.00;;;20.70
11424;BMP180;5768;51.476;7.210;2022-09-09T18:31:43;99621.00;;;20.70
11424;BMP180;5768;51.476;7.210;2022-09-09T18:36:50;99619.00;;;20.70
11424;BMP180;5768;51.476;7.210;2022-09-09T18:41:56;99641.00;;;20.60
11424;BMP180;5768;51.476;7.210;2022-09-09T18:47:01;99634.00;;;20.60
11424;BMP180;5768;51.476;7.210;2022-09-09T18:52:05;99625.00;;;20.50
11424;BMP180;5768;51.476;7.210;2022-09-09T18:57:07;99637.00;;;20.30
11424;BMP180;5768;51.476;7.210;2022-09-09T19:02:10;99633.00;;;20.20
11424;BMP180;5768;51.476;7.210;2022-09-09T19:07:13;99637.00;;;20.10
11424;BMP180;5768;51.476;7.210;2022-09-09T19:12:15;99641.00;;;20.00
11424;BMP180;5768;51.476;7.210;2022-09-09T19:17:18;99644.00;;;20.00
11424;BMP180;5768;51.476;7.210;2022-09-09T19:22:21;99635.00;;;20.00
11424;BMP180;5768;51.476;7.210;2022-09-09T19:27:24;99638.00;;;19.90
11424;BMP180;5768;51.476;7.210;2022-09-09T19:32:27;99645.00;;;19.90
11424;BMP180;5768;51.476;7.210;2022-09-09T19:37:30;99651.00;;;19.80
11424;BMP180;5768;51.476;7.210;2022-09-09T19:42:33;99651.00;;;19.80
11424;BMP180;5768;51.476;7.210;2022-09-09T19:47:35;99663.00;;;19.80
11424;BMP180;5768;51.476;7.210;2022-09-09T19:52:38;99660.00;;;19.60
11424;BMP180;5768;51.476;7.210;2022-09-09T19:57:40;99667.00;;;19.60
11424;BMP180;5768;51.476;7.210;2022-09-09T20:02:42;99672.00;;;19.60
11424;BMP180;5768;51.476;7.210;2022-09-09T20:07:46;99675.00;;;19.70
11424;BMP180;5768;51.476;7.210;2022-09-09T20:12:48;99682.00;;;19.80
11424;BMP180;5768;51.476;7.210;2022-09-09T20:17:50;99683.00;;;19.70
11424;BMP180;5768;51.476;7.210;2022-09-09T20:22:54;99686.00;;;19.60
11424;BMP180;5768;51.476;7.210;2022-09-09T20:27:57;99699.00;;;19.60
11424;BMP180;5768;51.476;7.210;2022-09-09T20:32:59;99700.00;;;19.80
11424;BMP180;5768;51.476;7.210;2022-09-09T20:38:02;99695.00;;;19.90
11424;BMP180;5768;51.476;7.210;2022-09-09T20:43:05;99699.00;;;20.00
11424;BMP180;5768;51.476;7.210;2022-09-09T20:48:07;99702.00;;;20.00
11424;BMP180;5768;51.476;7.210;2022-09-09T20:53:10;99696.00;;;19.90
11424;BMP180;5768;51.476;7.210;2022-09-09T20:58:12;99709.00;;;19.90
11424;BMP180;5768;51.476;7.210;2022-09-09T21:03:14;99698.00;;;19.80
11424;BMP180;5768;51.476;7.210;2022-09-09T21:08:18;99697.00;;;19.70
11424;BMP180;5768;51.476;7.210;2022-09-09T21:13:20;99699.00;;;19.60
11424;BMP180;5768;51.476;7.210;2022-09-09T21:18:24;99703.00;;;19.70
11424;BMP180;5768;51.476;7.210;2022-09-09T21:23:30;99705.00;;;19.70
11424;BMP180;5768;51.476;7.210;2022-09-09T21:28:32;99705.00;;;19.80
11424;BMP180;5768;51.476;7.210;2022-09-09T21:33:35;99702.00;;;19.70
11424;BMP180;5768;51.476;7.210;2022-09-09T21:38:40;99701.00;;;19.60
11424;BMP180;5768;51.476;7.210;2022-09-09T21:43:44;99703.00;;;19.60
11424;BMP180;5768;51.476;7.210;2022-09-09T21:48:47;99702.00;;;19.60
11424;BMP180;5768;51.476;7.210;2022-09-09T21:53:54;99703.00;;;19.70
11424;BMP180;5768;51.476;7.210;2022-09-09T21:58:58;99707.00;;;19.70
11424;BMP180;5768;51.476;7.210;2022-09-09T22:04:02;99711.00;;;19.60
11424;BMP180;5768;51.476;7.210;2022-09-09T22:09:05;99698.00;;;19.50
11424;BMP180;5768;51.476;7.210;2022-09-09T22:14:08;99706.00;;;19.50
11424;BMP180;5768;51.476;7.210;2022-09-09T22:19:10;99710.00;;;19.50
11424;BMP180;5768;51.476;7.210;2022-09-09T22:24:13;99711.00;;;19.40
11424;BMP180;5768;51.476;7.210;2022-09-09T22:29:15;99706.00;;;19.40
11424;BMP180;5768;51.476;7.210;2022-09-09T22:34:17;99712.00;;;19.50
11424;BMP180;5768;51.476;7.210;2022-09-09T22:39:22;99707.00;;;19.40
11424;BMP180;5768;51.476;7.210;2022-09-09T22:44:25;99693.00;;;19.40
11424;BMP180;5768;51.476;7.210;2022-09-09T22:49:28;99711.00;;;19.30
11424;BMP180;5768;51.476;7.210;2022-09-09T22:54:32;99702.00;;;19.20
11424;BMP180;5768;51.476;7.210;2022-09-09T22:59:34;99712.00;;;19.10
11424;BMP180;5768;51.476;7.210;2022-09-09T23:04:37;99713.00;;;19.00
11424;BMP180;5768;51.476;7.210;2022-09-09T23:09:40;99705.00;;;18.90
11424;BMP180;5768;51.476;7.210;2022-09-09T23:14:42;99706.00;;;18.90
11424;BMP180;5768;51.476;7.210;2022-09-09T23:19:44;99708.00;;;18.80
11424;BMP180;5768;51.476;7.210;2022-09-09T23:24:48;99706.00;;;18.70
11424;BMP180;5768;51.476;7.210;2022-09-09T23:29:53;99709.00;;;18.70
11424;BMP180;5768;51.476;7.210;2022-09-09T23:35:02;99708.00;;;18.60
11424;BMP180;5768;51.476;7.210;2022-09-09T23:40:07;99720.00;;;18.60
11424;BMP180;5768;51.476;7.210;2022-09-09T23:45:10;99720.00;;;18.60
11424;BMP180;5768;51.476;7.210;2022-09-09T23:50:12;99719.00;;;18.60
11424;BMP180;5768;51.476;7.210;2022-09-09T23:55:15;99722.00;;;18.70
